sensor_id;sensor_type;location;lat;lon;timestamp;temperature;humidity
65058;HTU21D;51644;51.068;5.860;2023-02-23T00:00:10;11.28;84.81
65058;HTU21D;51644;51.068;5.860;2023-02-23T00:01:28;11.28;84.81
65058;HTU21D;51644;51.068;5.860;2023-02-23T00:02:27;11.27;84.87
65058;HTU21D;51644;51.068;5.860;2023-02-23T00:03:25;11.27;84.93
65058;HTU21D;51644;51.068;5.860;2023-02-23T00:04:24;11.25;84.98
65058;HTU21D;51644;51.068;5.860;2023-02-23T00:05:35;11.26;85.04
65058;HTU21D;51644;51.068;5.860;2023-02-23T00:06:44;11.24;85.07
65058;HTU21D;51644;51.068;5.860;2023-02-23T00:07:44;11.24;85.09
65058;HTU21D;51644;51.068;5.860;2023-02-23T00:08:44;11.23;85.15
65058;HTU21D;51644;51.068;5.860;2023-02-23T00:09:48;11.22;85.22
65058;HTU21D;51644;51.068;5.860;2023-02-23T00:11:06;11.22;85.25
65058;HTU21D;51644;51.068;5.860;2023-02-23T00:12:05;11.22;85.24
65058;HTU21D;51644;51.068;5.860;2023-02-23T00:13:07;11.20;85.29
65058;HTU21D;51644;51.068;5.860;2023-02-23T00:14:08;11.18;85.36
65058;HTU21D;51644;51.068;5.860;2023-02-23T00:15:07;11.18;85.41
65058;HTU21D;51644;51.068;5.860;2023-02-23T00:16:10;11.16;85.45
65058;HTU21D;51644;51.068;5.860;2023-02-23T00:17:11;11.18;85.45
65058;HTU21D;51644;51.068;5.860;2023-02-23T00:18:11;11.17;85.45
65058;HTU21D;51644;51.068;5.860;2023-02-23T00:19:11;11.17;85.48
65058;HTU21D;51644;51.068;5.860;2023-02-23T00:20:11;11.15;85.51
65058;HTU21D;51644;51.068;5.860;2023-02-23T00:21:12;11.13;85.64
65058;HTU21D;51644;51.068;5.860;2023-02-23T00:22:12;11.10;85.78
65058;HTU21D;51644;51.068;5.860;2023-02-23T00:23:11;11.08;85.93
65058;HTU21D;51644;51.068;5.860;2023-02-23T00:24:12;11.07;86.08
65058;HTU21D;51644;51.068;5.860;2023-02-23T00:25:16;11.05;86.20
65058;HTU21D;51644;51.068;5.860;2023-02-23T00:26:17;11.02;86.31
65058;HTU21D;51644;51.068;5.860;2023-02-23T00:27:18;11.00;86.41
65058;HTU21D;51644;51.068;5.860;2023-02-23T00:28:18;11.00;86.50
65058;HTU21D;51644;51.068;5.860;2023-02-23T00:29:22;10.99;86.58
65058;HTU21D;51644;51.068;5.860;2023-02-23T00:30:22;10.99;86.63
65058;HTU21D;51644;51.068;5.860;2023-02-23T00:31:22;10.97;86.72
65058;HTU21D;51644;51.068;5.860;2023-02-23T00:32:23;10.96;86.83
65058;HTU21D;51644;51.068;5.860;2023-02-23T00:33:22;10.95;86.90
65058;HTU21D;51644;51.068;5.860;2023-02-23T00:34:21;10.94;86.97
65058;HTU21D;51644;51.068;5.860;2023-02-23T00:35:20;10.92;87.09
65058;HTU21D;51644;51.068;5.860;2023-02-23T00:36:21;10.89;87.19
65058;HTU21D;51644;51.068;5.860;2023-02-23T00:37:21;10.88;87.31
65058;HTU21D;51644;51.068;5.860;2023-02-23T00:38:20;10.87;87.39
65058;HTU21D;51644;51.068;5.860;2023-02-23T00:39:19;10.86;87.47
65058;HTU21D;51644;51.068;5.860;2023-02-23T00:40:26;10.84;87.52
65058;HTU21D;51644;51.068;5.860;2023-02-23T00:41:25;10.84;87.57
65058;HTU21D;51644;51.068;5.860;2023-02-23T00:42:26;10.84;87.65
65058;HTU21D;51644;51.068;5.860;2023-02-23T00:43:38;10.82;87.70
65058;HTU21D;51644;51.068;5.860;2023-02-23T00:44:44;10.82;87.77
65058;HTU21D;51644;51.068;5.860;2023-02-23T00:45:44;10.82;87.84
65058;HTU21D;51644;51.068;5.860;2023-02-23T00:46:44;10.82;87.89
65058;HTU21D;51644;51.068;5.860;2023-02-23T00:47:46;10.82;87.93
65058;HTU21D;51644;51.068;5.860;2023-02-23T00:48:48;10.80;88.03
65058;HTU21D;51644;51.068;5.860;2023-02-23T00:49:46;10.81;88.07
65058;HTU21D;51644;51.068;5.860;2023-02-23T00:50:45;10.83;87.97
65058;HTU21D;51644;51.068;5.860;2023-02-23T00:51:48;10.82;87.91
65058;HTU21D;51644;51.068;5.860;2023-02-23T00:52:46;10.84;87.89
65058;HTU21D;51644;51.068;5.860;2023-02-23T00:53:45;10.83;87.87
65058;HTU21D;51644;51.068;5.860;2023-02-23T00:54:43;10.83;87.83
65058;HTU21D;51644;51.068;5.860;2023-02-23T00:55:42;10.82;87.85
65058;HTU21D;51644;51.068;5.860;2023-02-23T00:56:41;10.82;87.88
65058;HTU21D;51644;51.068;5.860;2023-02-23T00:57:40;10.81;87.92
65058;HTU21D;51644;51.068;5.860;2023-02-23T00:58:39;10.81;87.97
65058;HTU21D;51644;51.068;5.860;2023-02-23T00:59:38;10.80;88.00
65058;HTU21D;51644;51.068;5.860;2023-02-23T01:00:39;10.79;88.03
65058;HTU21D;51644;51.068;5.860;2023-02-23T01:01:40;10.79;88.12
65058;HTU21D;51644;51.068;5.860;2023-02-23T01:02:39;10.80;88.15
65058;HTU21D;51644;51.068;5.860;2023-02-23T01:03:42;10.80;88.16
65058;HTU21D;51644;51.068;5.860;2023-02-23T01:04:41;10.79;88.18
65058;HTU21D;51644;51.068;5.860;2023-02-23T01:05:39;10.79;88.21
65058;HTU21D;51644;51.068;5.860;2023-02-23T01:06:39;10.79;88.24
65058;HTU21D;51644;51.068;5.860;2023-02-23T01:07:39;10.80;88.27
65058;HTU21D;51644;51.068;5.860;2023-02-23T01:08:41;10.81;88.28
65058;HTU21D;51644;51.068;5.860;2023-02-23T01:09:42;10.81;88.25
65058;HTU21D;51644;51.068;5.860;2023-02-23T01:10:43;10.82;88.17
65058;HTU21D;51644;51.068;5.860;2023-02-23T01:11:49;10.84;88.12
65058;HTU21D;51644;51.068;5.860;2023-02-23T01:12:50;10.83;88.09
65058;HTU21D;51644;51.068;5.860;2023-02-23T01:13:52;10.83;88.10
65058;HTU21D;51644;51.068;5.860;2023-02-23T01:14:51;10.83;88.14
65058;HTU21D;51644;51.068;5.860;2023-02-23T01:15:49;10.80;88.14
65058;HTU21D;51644;51.068;5.860;2023-02-23T01:16:49;10.78;88.17
65058;HTU21D;51644;51.068;5.860;2023-02-23T01:17:48;10.75;88.28
65058;HTU21D;51644;51.068;5.860;2023-02-23T01:18:48;10.72;88.38
65058;HTU21D;51644;51.068;5.860;2023-02-23T01:19:46;10.69;88.53
65058;HTU21D;51644;51.068;5.860;2023-02-23T01:20:46;10.68;88.66
65058;HTU21D;51644;51.068;5.860;2023-02-23T01:21:44;10.64;88.82
65058;HTU21D;51644;51.068;5.860;2023-02-23T01:22:50;10.63;88.96
65058;HTU21D;51644;51.068;5.860;2023-02-23T01:23:50;10.62;89.00
65058;HTU21D;51644;51.068;5.860;2023-02-23T01:24:49;10.59;89.08
65058;HTU21D;51644;51.068;5.860;2023-02-23T01:25:47;10.58;89.19
65058;HTU21D;51644;51.068;5.860;2023-02-23T01:26:46;10.57;89.24
65058;HTU21D;51644;51.068;5.860;2023-02-23T01:27:45;10.55;89.33
65058;HTU21D;51644;51.068;5.860;2023-02-23T01:28:48;10.55;89.46
65058;HTU21D;51644;51.068;5.860;2023-02-23T01:29:49;10.55;89.47
65058;HTU21D;51644;51.068;5.860;2023-02-23T01:30:48;10.56;89.50
65058;HTU21D;51644;51.068;5.860;2023-02-23T01:31:48;10.55;89.54
65058;HTU21D;51644;51.068;5.860;2023-02-23T01:32:49;10.54;89.59
65058;HTU21D;51644;51.068;5.860;2023-02-23T01:33:56;10.54;89.72
65058;HTU21D;51644;51.068;5.860;2023-02-23T01:34:58;10.54;89.82
65058;HTU21D;51644;51.068;5.860;2023-02-23T01:35:59;10.54;89.84
65058;HTU21D;51644;51.068;5.860;2023-02-23T01:36:58;10.56;89.83
65058;HTU21D;51644;51.068;5.860;2023-02-23T01:37:57;10.55;89.86
65058;HTU21D;51644;51.068;5.860;2023-02-23T01:38:56;10.56;89.89
65058;HTU21D;51644;51.068;5.860;2023-02-23T01:39:57;10.56;89.90
65058;HTU21D;51644;51.068;5.860;2023-02-23T01:40:55;10.57;89.91
65058;HTU21D;51644;51.068;5.860;2023-02-23T01:41:55;10.55;89.94
65058;HTU21D;51644;51.068;5.860;2023-02-23T01:42:57;10.55;89.96
65058;HTU21D;51644;51.068;5.860;2023-02-23T01:45:28;10.52;90.21
65058;HTU21D;51644;51.068;5.860;2023-02-23T01:46:30;10.54;90.36
65058;HTU21D;51644;51.068;5.860;2023-02-23T01:47:29;10.53;90.34
65058;HTU21D;51644;51.068;5.860;2023-02-23T01:48:36;10.52;90.36
65058;HTU21D;51644;51.068;5.860;2023-02-23T01:49:48;10.51;90.39
65058;HTU21D;51644;51.068;5.860;2023-02-23T01:51:11;10.49;90.36
65058;HTU21D;51644;51.068;5.860;2023-02-23T01:52:15;10.46;90.44
65058;HTU21D;51644;51.068;5.860;2023-02-23T01:53:16;10.46;90.50
65058;HTU21D;51644;51.068;5.860;2023-02-23T01:54:20;10.45;90.58
65058;HTU21D;51644;51.068;5.860;2023-02-23T01:55:22;10.43;90.61
65058;HTU21D;51644;51.068;5.860;2023-02-23T01:56:32;10.44;90.68
65058;HTU21D;51644;51.068;5.860;2023-02-23T01:57:32;10.42;90.70
65058;HTU21D;51644;51.068;5.860;2023-02-23T01:58:32;10.41;90.71
65058;HTU21D;51644;51.068;5.860;2023-02-23T01:59:40;10.42;90.79
65058;HTU21D;51644;51.068;5.860;2023-02-23T02:00:55;10.43;90.93
65058;HTU21D;51644;51.068;5.860;2023-02-23T02:01:55;10.41;90.85
65058;HTU21D;51644;51.068;5.860;2023-02-23T02:02:54;10.40;90.84
65058;HTU21D;51644;51.068;5.860;2023-02-23T02:03:59;10.40;90.95
65058;HTU21D;51644;51.068;5.860;2023-02-23T02:05:02;10.38;91.04
65058;HTU21D;51644;51.068;5.860;2023-02-23T02:06:03;10.38;91.07
65058;HTU21D;51644;51.068;5.860;2023-02-23T02:07:03;10.38;91.08
65058;HTU21D;51644;51.068;5.860;2023-02-23T02:08:02;10.38;91.12
65058;HTU21D;51644;51.068;5.860;2023-02-23T02:09:08;10.37;91.15
65058;HTU21D;51644;51.068;5.860;2023-02-23T02:10:09;10.38;91.18
65058;HTU21D;51644;51.068;5.860;2023-02-23T02:11:12;10.37;91.21
65058;HTU21D;51644;51.068;5.860;2023-02-23T02:12:23;10.38;91.31
65058;HTU21D;51644;51.068;5.860;2023-02-23T02:13:28;10.37;91.32
65058;HTU21D;51644;51.068;5.860;2023-02-23T02:14:29;10.37;91.31
65058;HTU21D;51644;51.068;5.860;2023-02-23T02:15:34;10.36;91.36
65058;HTU21D;51644;51.068;5.860;2023-02-23T02:23:08;10.36;91.41
65058;HTU21D;51644;51.068;5.860;2023-02-23T02:26:43;10.39;91.38
65058;HTU21D;51644;51.068;5.860;2023-02-23T02:34:02;10.42;91.27
65058;HTU21D;51644;51.068;5.860;2023-02-23T02:38:20;10.35;91.36
65058;HTU21D;51644;51.068;5.860;2023-02-23T02:39:25;10.35;91.50
65058;HTU21D;51644;51.068;5.860;2023-02-23T02:40:58;10.37;91.55
65058;HTU21D;51644;51.068;5.860;2023-02-23T02:42:19;10.37;91.46
65058;HTU21D;51644;51.068;5.860;2023-02-23T02:43:28;10.37;91.41
65058;HTU21D;51644;51.068;5.860;2023-02-23T02:47:39;10.35;91.36
65058;HTU21D;51644;51.068;5.860;2023-02-23T02:50:20;10.31;91.45
65058;HTU21D;51644;51.068;5.860;2023-02-23T02:51:52;10.29;91.53
65058;HTU21D;51644;51.068;5.860;2023-02-23T02:53:05;10.29;91.60
65058;HTU21D;51644;51.068;5.860;2023-02-23T02:55:31;10.30;91.63
65058;HTU21D;51644;51.068;5.860;2023-02-23T02:56:39;10.30;91.64
65058;HTU21D;51644;51.068;5.860;2023-02-23T02:57:42;10.28;91.60
65058;HTU21D;51644;51.068;5.860;2023-02-23T02:58:45;10.27;91.64
65058;HTU21D;51644;51.068;5.860;2023-02-23T02:59:48;10.26;91.70
65058;HTU21D;51644;51.068;5.860;2023-02-23T03:01:08;10.26;91.71
65058;HTU21D;51644;51.068;5.860;2023-02-23T03:02:28;10.26;91.72
65058;HTU21D;51644;51.068;5.860;2023-02-23T03:03:48;10.26;91.74
65058;HTU21D;51644;51.068;5.860;2023-02-23T03:05:18;10.26;91.75
65058;HTU21D;51644;51.068;5.860;2023-02-23T03:06:46;10.26;91.74
65058;HTU21D;51644;51.068;5.860;2023-02-23T03:08:33;10.25;91.75
65058;HTU21D;51644;51.068;5.860;2023-02-23T03:10:18;10.27;91.72
65058;HTU21D;51644;51.068;5.860;2023-02-23T03:11:51;10.29;91.74
65058;HTU21D;51644;51.068;5.860;2023-02-23T03:19:56;10.37;91.17
65058;HTU21D;51644;51.068;5.860;2023-02-23T03:21:27;10.36;91.21
65058;HTU21D;51644;51.068;5.860;2023-02-23T03:23:18;10.35;91.31
65058;HTU21D;51644;51.068;5.860;2023-02-23T03:24:56;10.33;91.40
65058;HTU21D;51644;51.068;5.860;2023-02-23T03:26:22;10.33;91.43
65058;HTU21D;51644;51.068;5.860;2023-02-23T03:27:53;10.34;91.43
65058;HTU21D;51644;51.068;5.860;2023-02-23T03:29:28;10.35;91.47
65058;HTU21D;51644;51.068;5.860;2023-02-23T03:32:29;10.43;91.15
65058;HTU21D;51644;51.068;5.860;2023-02-23T03:35:34;10.46;90.83
65058;HTU21D;51644;51.068;5.860;2023-02-23T03:37:00;10.46;90.76
65058;HTU21D;51644;51.068;5.860;2023-02-23T03:38:32;10.46;90.71
65058;HTU21D;51644;51.068;5.860;2023-02-23T03:40:01;10.46;90.71
65058;HTU21D;51644;51.068;5.860;2023-02-23T03:41:23;10.46;90.70
65058;HTU21D;51644;51.068;5.860;2023-02-23T03:42:44;10.48;90.69
65058;HTU21D;51644;51.068;5.860;2023-02-23T03:44:10;10.49;90.66
65058;HTU21D;51644;51.068;5.860;2023-02-23T03:45:31;10.50;90.57
65058;HTU21D;51644;51.068;5.860;2023-02-23T03:46:50;10.52;90.48
65058;HTU21D;51644;51.068;5.860;2023-02-23T03:48:11;10.53;90.39
65058;HTU21D;51644;51.068;5.860;2023-02-23T03:49:34;10.54;90.36
65058;HTU21D;51644;51.068;5.860;2023-02-23T03:50:57;10.52;90.30
65058;HTU21D;51644;51.068;5.860;2023-02-23T03:52:23;10.50;90.34
65058;HTU21D;51644;51.068;5.860;2023-02-23T03:53:49;10.50;90.34
65058;HTU21D;51644;51.068;5.860;2023-02-23T03:55:31;10.50;90.36
65058;HTU21D;51644;51.068;5.860;2023-02-23T03:56:50;10.50;90.37
65058;HTU21D;51644;51.068;5.860;2023-02-23T03:58:15;10.51;90.35
65058;HTU21D;51644;51.068;5.860;2023-02-23T03:59:38;10.50;90.30
65058;HTU21D;51644;51.068;5.860;2023-02-23T04:01:00;10.51;90.30
65058;HTU21D;51644;51.068;5.860;2023-02-23T04:02:22;10.49;90.33
65058;HTU21D;51644;51.068;5.860;2023-02-23T04:03:43;10.49;90.34
65058;HTU21D;51644;51.068;5.860;2023-02-23T04:05:09;10.45;90.39
65058;HTU21D;51644;51.068;5.860;2023-02-23T04:06:35;10.42;90.49
65058;HTU21D;51644;51.068;5.860;2023-02-23T04:07:55;10.40;90.65
65058;HTU21D;51644;51.068;5.860;2023-02-23T04:09:14;10.40;90.73
65058;HTU21D;51644;51.068;5.860;2023-02-23T04:10:34;10.41;90.69
65058;HTU21D;51644;51.068;5.860;2023-02-23T04:12:13;10.43;90.71
65058;HTU21D;51644;51.068;5.860;2023-02-23T04:13:34;10.43;90.63
65058;HTU21D;51644;51.068;5.860;2023-02-23T04:15:03;10.46;90.60
65058;HTU21D;51644;51.068;5.860;2023-02-23T04:16:08;10.48;90.53
65058;HTU21D;51644;51.068;5.860;2023-02-23T04:17:09;10.48;90.41
65058;HTU21D;51644;51.068;5.860;2023-02-23T04:18:23;10.45;90.37
65058;HTU21D;51644;51.068;5.860;2023-02-23T04:19:26;10.43;90.47
65058;HTU21D;51644;51.068;5.860;2023-02-23T04:20:26;10.41;90.53
65058;HTU21D;51644;51.068;5.860;2023-02-23T04:21:24;10.40;90.63
65058;HTU21D;51644;51.068;5.860;2023-02-23T04:22:24;10.42;90.70
65058;HTU21D;51644;51.068;5.860;2023-02-23T04:23:23;10.42;90.68
65058;HTU21D;51644;51.068;5.860;2023-02-23T04:24:22;10.43;90.66
65058;HTU21D;51644;51.068;5.860;2023-02-23T04:25:21;10.45;90.65
65058;HTU21D;51644;51.068;5.860;2023-02-23T04:26:20;10.44;90.63
65058;HTU21D;51644;51.068;5.860;2023-02-23T04:27:18;10.46;90.52
65058;HTU21D;51644;51.068;5.860;2023-02-23T04:28:18;10.45;90.48
65058;HTU21D;51644;51.068;5.860;2023-02-23T04:29:17;10.46;90.47
65058;HTU21D;51644;51.068;5.860;2023-02-23T04:30:18;10.48;90.44
65058;HTU21D;51644;51.068;5.860;2023-02-23T04:31:17;10.45;90.44
65058;HTU21D;51644;51.068;5.860;2023-02-23T04:32:18;10.43;90.46
65058;HTU21D;51644;51.068;5.860;2023-02-23T04:33:19;10.40;90.50
65058;HTU21D;51644;51.068;5.860;2023-02-23T04:34:19;10.39;90.51
65058;HTU21D;51644;51.068;5.860;2023-02-23T04:35:17;10.36;90.62
65058;HTU21D;51644;51.068;5.860;2023-02-23T04:36:16;10.34;90.68
65058;HTU21D;51644;51.068;5.860;2023-02-23T04:37:15;10.31;90.78
65058;HTU21D;51644;51.068;5.860;2023-02-23T04:38:13;10.29;90.89
65058;HTU21D;51644;51.068;5.860;2023-02-23T04:39:12;10.29;90.98
65058;HTU21D;51644;51.068;5.860;2023-02-23T04:40:11;10.29;91.02
65058;HTU21D;51644;51.068;5.860;2023-02-23T04:41:10;10.29;91.03
65058;HTU21D;51644;51.068;5.860;2023-02-23T04:42:09;10.28;91.08
65058;HTU21D;51644;51.068;5.860;2023-02-23T04:43:10;10.28;91.15
65058;HTU21D;51644;51.068;5.860;2023-02-23T04:44:09;10.30;91.16
65058;HTU21D;51644;51.068;5.860;2023-02-23T04:45:08;10.31;91.09
65058;HTU21D;51644;51.068;5.860;2023-02-23T04:46:07;10.30;91.08
65058;HTU21D;51644;51.068;5.860;2023-02-23T04:47:06;10.30;91.05
65058;HTU21D;51644;51.068;5.860;2023-02-23T04:48:05;10.30;90.98
65058;HTU21D;51644;51.068;5.860;2023-02-23T04:49:03;10.28;90.95
65058;HTU21D;51644;51.068;5.860;2023-02-23T04:50:03;10.29;90.96
65058;HTU21D;51644;51.068;5.860;2023-02-23T04:51:02;10.28;91.02
65058;HTU21D;51644;51.068;5.860;2023-02-23T04:52:01;10.29;91.07
65058;HTU21D;51644;51.068;5.860;2023-02-23T04:53:00;10.29;91.05
65058;HTU21D;51644;51.068;5.860;2023-02-23T04:53:59;10.29;91.08
65058;HTU21D;51644;51.068;5.860;2023-02-23T04:54:57;10.29;91.07
65058;HTU21D;51644;51.068;5.860;2023-02-23T04:55:56;10.28;91.08
65058;HTU21D;51644;51.068;5.860;2023-02-23T04:56:55;10.28;91.15
65058;HTU21D;51644;51.068;5.860;2023-02-23T04:57:58;10.28;91.15
65058;HTU21D;51644;51.068;5.860;2023-02-23T04:58:58;10.29;91.14
65058;HTU21D;51644;51.068;5.860;2023-02-23T04:59:57;10.29;91.11
65058;HTU21D;51644;51.068;5.860;2023-02-23T05:01:03;10.31;91.08
65058;HTU21D;51644;51.068;5.860;2023-02-23T05:02:03;10.30;91.04
65058;HTU21D;51644;51.068;5.860;2023-02-23T05:03:01;10.28;91.02
65058;HTU21D;51644;51.068;5.860;2023-02-23T05:04:00;10.29;91.07
65058;HTU21D;51644;51.068;5.860;2023-02-23T05:04:58;10.28;91.08
65058;HTU21D;51644;51.068;5.860;2023-02-23T05:05:57;10.28;91.08
65058;HTU21D;51644;51.068;5.860;2023-02-23T05:06:55;10.29;91.07
65058;HTU21D;51644;51.068;5.860;2023-02-23T05:07:54;10.27;91.11
65058;HTU21D;51644;51.068;5.860;2023-02-23T05:08:53;10.28;91.15
65058;HTU21D;51644;51.068;5.860;2023-02-23T05:09:51;10.28;91.15
65058;HTU21D;51644;51.068;5.860;2023-02-23T05:10:50;10.28;91.17
65058;HTU21D;51644;51.068;5.860;2023-02-23T05:11:48;10.30;91.16
65058;HTU21D;51644;51.068;5.860;2023-02-23T05:12:47;10.31;91.16
65058;HTU21D;51644;51.068;5.860;2023-02-23T05:13:46;10.31;91.11
65058;HTU21D;51644;51.068;5.860;2023-02-23T05:14:45;10.33;91.10
65058;HTU21D;51644;51.068;5.860;2023-02-23T05:15:43;10.34;91.08
65058;HTU21D;51644;51.068;5.860;2023-02-23T05:16:42;10.30;91.05
65058;HTU21D;51644;51.068;5.860;2023-02-23T05:17:41;10.30;91.03
65058;HTU21D;51644;51.068;5.860;2023-02-23T05:18:40;10.29;91.03
65058;HTU21D;51644;51.068;5.860;2023-02-23T05:19:39;10.28;91.05
65058;HTU21D;51644;51.068;5.860;2023-02-23T05:20:41;10.28;91.07
65058;HTU21D;51644;51.068;5.860;2023-02-23T05:21:40;10.28;91.11
65058;HTU21D;51644;51.068;5.860;2023-02-23T05:22:39;10.26;91.10
65058;HTU21D;51644;51.068;5.860;2023-02-23T05:23:38;10.26;91.14
65058;HTU21D;51644;51.068;5.860;2023-02-23T05:24:40;10.24;91.18
65058;HTU21D;51644;51.068;5.860;2023-02-23T05:25:39;10.24;91.14
65058;HTU21D;51644;51.068;5.860;2023-02-23T05:26:38;10.25;91.18
65058;HTU21D;51644;51.068;5.860;2023-02-23T05:27:37;10.26;91.16
65058;HTU21D;51644;51.068;5.860;2023-02-23T05:28:38;10.24;91.11
65058;HTU21D;51644;51.068;5.860;2023-02-23T05:29:37;10.22;91.11
65058;HTU21D;51644;51.068;5.860;2023-02-23T05:30:36;10.21;91.18
65058;HTU21D;51644;51.068;5.860;2023-02-23T05:31:34;10.20;91.21
65058;HTU21D;51644;51.068;5.860;2023-02-23T05:32:33;10.19;91.27
65058;HTU21D;51644;51.068;5.860;2023-02-23T05:33:32;10.20;91.31
65058;HTU21D;51644;51.068;5.860;2023-02-23T05:34:32;10.18;91.31
65058;HTU21D;51644;51.068;5.860;2023-02-23T05:35:30;10.19;91.27
65058;HTU21D;51644;51.068;5.860;2023-02-23T05:36:29;10.16;91.27
65058;HTU21D;51644;51.068;5.860;2023-02-23T05:37:28;10.15;91.31
65058;HTU21D;51644;51.068;5.860;2023-02-23T05:38:26;10.14;91.37
65058;HTU21D;51644;51.068;5.860;2023-02-23T05:39:25;10.14;91.34
65058;HTU21D;51644;51.068;5.860;2023-02-23T05:40:23;10.16;91.38
65058;HTU21D;51644;51.068;5.860;2023-02-23T05:41:22;10.18;91.35
65058;HTU21D;51644;51.068;5.860;2023-02-23T05:42:21;10.16;91.27
65058;HTU21D;51644;51.068;5.860;2023-02-23T05:43:19;10.18;91.30
65058;HTU21D;51644;51.068;5.860;2023-02-23T05:44:18;10.19;91.22
65058;HTU21D;51644;51.068;5.860;2023-02-23T05:45:17;10.16;91.22
65058;HTU21D;51644;51.068;5.860;2023-02-23T05:46:19;10.16;91.21
65058;HTU21D;51644;51.068;5.860;2023-02-23T05:47:18;10.18;91.23
65058;HTU21D;51644;51.068;5.860;2023-02-23T05:48:17;10.18;91.22
65058;HTU21D;51644;51.068;5.860;2023-02-23T05:49:15;10.18;91.24
65058;HTU21D;51644;51.068;5.860;2023-02-23T05:50:14;10.16;91.26
65058;HTU21D;51644;51.068;5.860;2023-02-23T05:51:14;10.16;91.30
65058;HTU21D;51644;51.068;5.860;2023-02-23T05:52:13;10.15;91.33
65058;HTU21D;51644;51.068;5.860;2023-02-23T05:53:12;10.15;91.37
65058;HTU21D;51644;51.068;5.860;2023-02-23T05:54:10;10.14;91.42
65058;HTU21D;51644;51.068;5.860;2023-02-23T05:55:11;10.13;91.43
65058;HTU21D;51644;51.068;5.860;2023-02-23T05:56:13;10.13;91.45
65058;HTU21D;51644;51.068;5.860;2023-02-23T05:57:17;10.13;91.49
65058;HTU21D;51644;51.068;5.860;2023-02-23T05:58:16;10.13;91.50
65058;HTU21D;51644;51.068;5.860;2023-02-23T05:59:14;10.14;91.52
65058;HTU21D;51644;51.068;5.860;2023-02-23T06:00:14;10.18;91.63
65058;HTU21D;51644;51.068;5.860;2023-02-23T06:01:14;10.19;91.49
65058;HTU21D;51644;51.068;5.860;2023-02-23T06:02:13;10.21;91.43
65058;HTU21D;51644;51.068;5.860;2023-02-23T06:03:11;10.23;91.40
65058;HTU21D;51644;51.068;5.860;2023-02-23T06:04:10;10.24;91.27
65058;HTU21D;51644;51.068;5.860;2023-02-23T06:05:10;10.23;91.24
65058;HTU21D;51644;51.068;5.860;2023-02-23T06:06:09;10.23;91.23
65058;HTU21D;51644;51.068;5.860;2023-02-23T06:07:08;10.23;91.25
65058;HTU21D;51644;51.068;5.860;2023-02-23T06:08:06;10.25;91.24
65058;HTU21D;51644;51.068;5.860;2023-02-23T06:09:05;10.27;91.18
65058;HTU21D;51644;51.068;5.860;2023-02-23T06:10:04;10.28;91.02
65058;HTU21D;51644;51.068;5.860;2023-02-23T06:11:03;10.29;90.89
65058;HTU21D;51644;51.068;5.860;2023-02-23T06:12:02;10.33;90.82
65058;HTU21D;51644;51.068;5.860;2023-02-23T06:13:01;10.33;90.73
65058;HTU21D;51644;51.068;5.860;2023-02-23T06:13:59;10.36;90.66
65058;HTU21D;51644;51.068;5.860;2023-02-23T06:14:58;10.36;90.60
65058;HTU21D;51644;51.068;5.860;2023-02-23T06:15:57;10.37;90.53
65058;HTU21D;51644;51.068;5.860;2023-02-23T06:16:56;10.40;90.38
65058;HTU21D;51644;51.068;5.860;2023-02-23T06:17:55;10.41;90.26
65058;HTU21D;51644;51.068;5.860;2023-02-23T06:18:54;10.41;90.07
65058;HTU21D;51644;51.068;5.860;2023-02-23T06:19:52;10.41;89.85
65058;HTU21D;51644;51.068;5.860;2023-02-23T06:20:51;10.40;89.76
65058;HTU21D;51644;51.068;5.860;2023-02-23T06:21:49;10.38;89.74
65058;HTU21D;51644;51.068;5.860;2023-02-23T06:22:50;10.36;89.74
65058;HTU21D;51644;51.068;5.860;2023-02-23T06:23:48;10.35;89.73
65058;HTU21D;51644;51.068;5.860;2023-02-23T06:24:47;10.35;89.70
65058;HTU21D;51644;51.068;5.860;2023-02-23T06:25:47;10.33;89.73
65058;HTU21D;51644;51.068;5.860;2023-02-23T06:26:45;10.30;89.77
65058;HTU21D;51644;51.068;5.860;2023-02-23T06:27:44;10.29;89.83
65058;HTU21D;51644;51.068;5.860;2023-02-23T06:28:42;10.27;89.89
65058;HTU21D;51644;51.068;5.860;2023-02-23T06:29:41;10.25;89.95
65058;HTU21D;51644;51.068;5.860;2023-02-23T06:30:40;10.26;90.05
65058;HTU21D;51644;51.068;5.860;2023-02-23T06:31:39;10.26;90.08
65058;HTU21D;51644;51.068;5.860;2023-02-23T06:32:38;10.26;90.05
65058;HTU21D;51644;51.068;5.860;2023-02-23T06:33:39;10.26;89.98
65058;HTU21D;51644;51.068;5.860;2023-02-23T06:34:39;10.26;89.98
65058;HTU21D;51644;51.068;5.860;2023-02-23T06:35:38;10.25;90.03
65058;HTU21D;51644;51.068;5.860;2023-02-23T06:36:36;10.24;90.01
65058;HTU21D;51644;51.068;5.860;2023-02-23T06:37:35;10.23;89.95
65058;HTU21D;51644;51.068;5.860;2023-02-23T06:38:34;10.21;90.00
65058;HTU21D;51644;51.068;5.860;2023-02-23T06:39:32;10.16;90.02
65058;HTU21D;51644;51.068;5.860;2023-02-23T06:40:32;10.18;90.13
65058;HTU21D;51644;51.068;5.860;2023-02-23T06:41:31;10.16;90.19
65058;HTU21D;51644;51.068;5.860;2023-02-23T06:42:30;10.16;90.06
65058;HTU21D;51644;51.068;5.860;2023-02-23T06:43:28;10.16;90.02
65058;HTU21D;51644;51.068;5.860;2023-02-23T06:44:27;10.18;89.99
65058;HTU21D;51644;51.068;5.860;2023-02-23T06:45:26;10.16;89.95
65058;HTU21D;51644;51.068;5.860;2023-02-23T06:46:25;10.16;89.92
65058;HTU21D;51644;51.068;5.860;2023-02-23T06:47:23;10.14;89.88
65058;HTU21D;51644;51.068;5.860;2023-02-23T06:48:22;10.14;89.87
65058;HTU21D;51644;51.068;5.860;2023-02-23T06:49:20;10.14;89.79
65058;HTU21D;51644;51.068;5.860;2023-02-23T06:50:19;10.11;89.66
65058;HTU21D;51644;51.068;5.860;2023-02-23T06:51:18;10.11;89.66
65058;HTU21D;51644;51.068;5.860;2023-02-23T06:52:17;10.13;89.52
65058;HTU21D;51644;51.068;5.860;2023-02-23T06:53:15;10.13;89.26
65058;HTU21D;51644;51.068;5.860;2023-02-23T06:54:14;10.10;89.15
65058;HTU21D;51644;51.068;5.860;2023-02-23T06:55:13;10.09;89.19
65058;HTU21D;51644;51.068;5.860;2023-02-23T06:56:13;10.06;89.14
65058;HTU21D;51644;51.068;5.860;2023-02-23T06:57:11;10.04;89.21
65058;HTU21D;51644;51.068;5.860;2023-02-23T06:58:10;10.05;89.28
65058;HTU21D;51644;51.068;5.860;2023-02-23T06:59:08;10.06;89.25
65058;HTU21D;51644;51.068;5.860;2023-02-23T07:00:07;10.07;89.21
65058;HTU21D;51644;51.068;5.860;2023-02-23T07:01:06;10.05;89.22
65058;HTU21D;51644;51.068;5.860;2023-02-23T07:02:05;10.07;89.16
65058;HTU21D;51644;51.068;5.860;2023-02-23T07:03:03;10.09;89.13
65058;HTU21D;51644;51.068;5.860;2023-02-23T07:04:02;10.10;89.05
65058;HTU21D;51644;51.068;5.860;2023-02-23T07:05:01;10.10;88.94
65058;HTU21D;51644;51.068;5.860;2023-02-23T07:05:59;10.12;88.92
65058;HTU21D;51644;51.068;5.860;2023-02-23T07:06:58;10.13;88.92
65058;HTU21D;51644;51.068;5.860;2023-02-23T07:07:57;10.13;88.91
65058;HTU21D;51644;51.068;5.860;2023-02-23T07:08:58;10.14;88.92
65058;HTU21D;51644;51.068;5.860;2023-02-23T07:09:56;10.14;88.95
65058;HTU21D;51644;51.068;5.860;2023-02-23T07:10:55;10.14;88.86
65058;HTU21D;51644;51.068;5.860;2023-02-23T07:11:55;10.13;88.79
65058;HTU21D;51644;51.068;5.860;2023-02-23T07:12:53;10.11;88.76